sensor_id;sensor_type;location;lat;lon;timestamp;temperature;humidity
7658;DHT22;8462;53.156;8.220;2023-05-07T00:00:37;13.00;99.90
7658;DHT22;8462;53.156;8.220;2023-05-07T00:03:04;13.00;99.90
7658;DHT22;8462;53.156;8.220;2023-05-07T00:05:31;12.90;99.90
7658;DHT22;8462;53.156;8.220;2023-05-07T00:07:57;12.90;99.90
7658;DHT22;8462;53.156;8.220;2023-05-07T00:10:25;12.90;99.90
7658;DHT22;8462;53.156;8.220;2023-05-07T00:12:52;12.90;99.90
7658;DHT22;8462;53.156;8.220;2023-05-07T00:15:18;12.90;99.90
7658;DHT22;8462;53.156;8.220;2023-05-07T00:17:47;12.90;99.90
7658;DHT22;8462;53.156;8.220;2023-05-07T00:20:13;12.90;99.90
7658;DHT22;8462;53.156;8.220;2023-05-07T00:22:41;12.90;99.90
7658;DHT22;8462;53.156;8.220;2023-05-07T00:25:08;12.90;99.90
7658;DHT22;8462;53.156;8.220;2023-05-07T00:27:35;12.80;99.90
7658;DHT22;8462;53.156;8.220;2023-05-07T00:30:02;12.80;99.90
7658;DHT22;8462;53.156;8.220;2023-05-07T00:32:30;12.80;99.90
7658;DHT22;8462;53.156;8.220;2023-05-07T00:34:58;12.70;99.90
7658;DHT22;8462;53.156;8.220;2023-05-07T00:37:25;12.60;99.90
7658;DHT22;8462;53.156;8.220;2023-05-07T00:39:51;12.60;99.90
7658;DHT22;8462;53.156;8.220;2023-05-07T00:42:18;12.50;99.90
7658;DHT22;8462;53.156;8.220;2023-05-07T00:44:46;12.50;99.90
7658;DHT22;8462;53.156;8.220;2023-05-07T00:47:14;12.50;99.90
7658;DHT22;8462;53.156;8.220;2023-05-07T00:49:42;12.40;99.90
7658;DHT22;8462;53.156;8.220;2023-05-07T00:52:13;12.50;99.90
7658;DHT22;8462;53.156;8.220;2023-05-07T00:54:41;12.40;99.90
7658;DHT22;8462;53.156;8.220;2023-05-07T00:57:09;12.40;99.90
7658;DHT22;8462;53.156;8.220;2023-05-07T00:59:36;12.30;99.90
7658;DHT22;8462;53.156;8.220;2023-05-07T01:02:03;12.20;99.90
7658;DHT22;8462;53.156;8.220;2023-05-07T01:04:30;12.20;99.90
7658;DHT22;8462;53.156;8.220;2023-05-07T01:06:58;12.20;99.90
7658;DHT22;8462;53.156;8.220;2023-05-07T01:09:28;12.20;99.90
7658;DHT22;8462;53.156;8.220;2023-05-07T01:11:56;12.10;99.90
7658;DHT22;8462;53.156;8.220;2023-05-07T01:14:24;12.20;99.90
7658;DHT22;8462;53.156;8.220;2023-05-07T01:16:51;12.10;99.90
7658;DHT22;8462;53.156;8.220;2023-05-07T01:19:21;12.20;99.90
7658;DHT22;8462;53.156;8.220;2023-05-07T01:21:49;12.20;99.90
7658;DHT22;8462;53.156;8.220;2023-05-07T01:24:20;12.20;99.90
7658;DHT22;8462;53.156;8.220;2023-05-07T01:26:47;12.20;99.90
7658;DHT22;8462;53.156;8.220;2023-05-07T01:29:16;12.20;99.90
7658;DHT22;8462;53.156;8.220;2023-05-07T01:31:44;12.20;99.90
7658;DHT22;8462;53.156;8.220;2023-05-07T01:34:12;12.20;99.90
7658;DHT22;8462;53.156;8.220;2023-05-07T01:36:40;12.20;99.90
7658;DHT22;8462;53.156;8.220;2023-05-07T01:39:09;12.10;99.90
7658;DHT22;8462;53.156;8.220;2023-05-07T01:41:38;12.00;99.90
7658;DHT22;8462;53.156;8.220;2023-05-07T01:44:05;12.00;99.90
7658;DHT22;8462;53.156;8.220;2023-05-07T01:46:33;11.90;99.90
7658;DHT22;8462;53.156;8.220;2023-05-07T01:49:00;12.00;99.90
7658;DHT22;8462;53.156;8.220;2023-05-07T01:51:27;12.00;99.90
7658;DHT22;8462;53.156;8.220;2023-05-07T01:53:55;12.00;99.90
7658;DHT22;8462;53.156;8.220;2023-05-07T01:56:22;12.00;99.90
7658;DHT22;8462;53.156;8.220;2023-05-07T01:58:50;12.00;99.90
7658;DHT22;8462;53.156;8.220;2023-05-07T02:01:18;12.00;99.90
7658;DHT22;8462;53.156;8.220;2023-05-07T02:03:45;11.90;99.90
7658;DHT22;8462;53.156;8.220;2023-05-07T02:06:22;11.90;99.90
7658;DHT22;8462;53.156;8.220;2023-05-07T02:08:52;11.90;99.90
7658;DHT22;8462;53.156;8.220;2023-05-07T02:11:19;11.90;99.90
7658;DHT22;8462;53.156;8.220;2023-05-07T02:13:46;11.90;99.90
7658;DHT22;8462;53.156;8.220;2023-05-07T02:16:14;11.90;99.90
7658;DHT22;8462;53.156;8.220;2023-05-07T02:18:41;11.90;99.90
7658;DHT22;8462;53.156;8.220;2023-05-07T02:21:08;11.90;99.90
7658;DHT22;8462;53.156;8.220;2023-05-07T02:23:35;11.80;99.90
7658;DHT22;8462;53.156;8.220;2023-05-07T02:26:04;11.80;99.90
7658;DHT22;8462;53.156;8.220;2023-05-07T02:28:31;11.80;99.90
7658;DHT22;8462;53.156;8.220;2023-05-07T02:31:02;11.80;99.90
7658;DHT22;8462;53.156;8.220;2023-05-07T02:33:31;11.70;99.90
7658;DHT22;8462;53.156;8.220;2023-05-07T02:36:06;11.70;99.90
7658;DHT22;8462;53.156;8.220;2023-05-07T02:38:35;11.70;99.90
7658;DHT22;8462;53.156;8.220;2023-05-07T02:41:03;11.70;99.90
7658;DHT22;8462;53.156;8.220;2023-05-07T02:43:30;11.60;99.90
7658;DHT22;8462;53.156;8.220;2023-05-07T02:46:01;11.70;99.90
7658;DHT22;8462;53.156;8.220;2023-05-07T02:48:28;11.70;99.90
7658;DHT22;8462;53.156;8.220;2023-05-07T02:50:57;11.80;99.90
7658;DHT22;8462;53.156;8.220;2023-05-07T02:53:24;11.80;99.90
7658;DHT22;8462;53.156;8.220;2023-05-07T02:55:52;11.70;99.90
7658;DHT22;8462;53.156;8.220;2023-05-07T02:58:19;11.70;99.90
7658;DHT22;8462;53.156;8.220;2023-05-07T03:00:46;11.70;99.90
7658;DHT22;8462;53.156;8.220;2023-05-07T03:03:22;11.70;99.90
7658;DHT22;8462;53.156;8.220;2023-05-07T03:05:49;11.70;99.90
7658;DHT22;8462;53.156;8.220;2023-05-07T03:08:17;11.70;99.90
7658;DHT22;8462;53.156;8.220;2023-05-07T03:10:44;11.70;99.90
7658;DHT22;8462;53.156;8.220;2023-05-07T03:13:11;11.70;99.90
7658;DHT22;8462;53.156;8.220;2023-05-07T03:15:38;11.60;99.90
7658;DHT22;8462;53.156;8.220;2023-05-07T03:18:06;11.60;99.90
7658;DHT22;8462;53.156;8.220;2023-05-07T03:20:33;11.60;99.90
7658;DHT22;8462;53.156;8.220;2023-05-07T03:23:02;11.60;99.90
7658;DHT22;8462;53.156;8.220;2023-05-07T03:25:30;11.60;99.90
7658;DHT22;8462;53.156;8.220;2023-05-07T03:27:57;11.60;99.90
7658;DHT22;8462;53.156;8.220;2023-05-07T03:30:30;11.70;99.90
7658;DHT22;8462;53.156;8.220;2023-05-07T03:32:57;11.70;99.90
7658;DHT22;8462;53.156;8.220;2023-05-07T03:35:24;11.70;99.90
7658;DHT22;8462;53.156;8.220;2023-05-07T03:37:51;11.70;99.90
7658;DHT22;8462;53.156;8.220;2023-05-07T03:40:18;11.70;99.90
7658;DHT22;8462;53.156;8.220;2023-05-07T03:42:51;11.70;99.90
7658;DHT22;8462;53.156;8.220;2023-05-07T03:45:20;11.70;99.90
7658;DHT22;8462;53.156;8.220;2023-05-07T03:47:56;11.70;99.90
7658;DHT22;8462;53.156;8.220;2023-05-07T03:50:23;11.70;99.90
7658;DHT22;8462;53.156;8.220;2023-05-07T03:52:50;11.70;99.90
7658;DHT22;8462;53.156;8.220;2023-05-07T03:55:20;11.60;99.90
7658;DHT22;8462;53.156;8.220;2023-05-07T03:57:53;11.60;99.90
7658;DHT22;8462;53.156;8.220;2023-05-07T04:00:20;11.50;99.90
7658;DHT22;8462;53.156;8.220;2023-05-07T04:02:47;11.40;99.90
7658;DHT22;8462;53.156;8.220;2023-05-07T04:05:19;11.40;99.90
7658;DHT22;8462;53.156;8.220;2023-05-07T04:07:49;11.30;99.90
7658;DHT22;8462;53.156;8.220;2023-05-07T04:10:20;11.20;99.90
7658;DHT22;8462;53.156;8.220;2023-05-07T04:12:50;11.30;99.90
7658;DHT22;8462;53.156;8.220;2023-05-07T04:15:22;11.20;99.90
7658;DHT22;8462;53.156;8.220;2023-05-07T04:17:49;11.20;99.90
7658;DHT22;8462;53.156;8.220;2023-05-07T04:20:19;11.20;99.90
7658;DHT22;8462;53.156;8.220;2023-05-07T04:22:51;11.20;99.90
7658;DHT22;8462;53.156;8.220;2023-05-07T04:25:18;11.20;99.90
7658;DHT22;8462;53.156;8.220;2023-05-07T04:27:45;11.20;99.90
7658;DHT22;8462;53.156;8.220;2023-05-07T04:30:13;11.20;99.90
7658;DHT22;8462;53.156;8.220;2023-05-07T04:32:42;11.30;99.90
7658;DHT22;8462;53.156;8.220;2023-05-07T04:35:10;11.40;99.90
7658;DHT22;8462;53.156;8.220;2023-05-07T04:37:38;11.40;99.90
7658;DHT22;8462;53.156;8.220;2023-05-07T04:40:07;11.50;99.90
7658;DHT22;8462;53.156;8.220;2023-05-07T04:42:34;11.50;99.90
7658;DHT22;8462;53.156;8.220;2023-05-07T04:45:02;11.60;99.90
7658;DHT22;8462;53.156;8.220;2023-05-07T04:47:32;11.60;99.90
7658;DHT22;8462;53.156;8.220;2023-05-07T04:50:02;11.60;99.90
7658;DHT22;8462;53.156;8.220;2023-05-07T04:52:29;11.60;99.90
7658;DHT22;8462;53.156;8.220;2023-05-07T04:54:59;11.70;99.90
7658;DHT22;8462;53.156;8.220;2023-05-07T04:57:27;11.70;99.90
7658;DHT22;8462;53.156;8.220;2023-05-07T04:59:54;11.70;99.90
7658;DHT22;8462;53.156;8.220;2023-05-07T05:02:21;11.80;99.90
7658;DHT22;8462;53.156;8.220;2023-05-07T05:04:48;11.80;99.90
7658;DHT22;8462;53.156;8.220;2023-05-07T05:07:17;11.90;99.90
7658;DHT22;8462;53.156;8.220;2023-05-07T05:09:44;11.90;99.90
7658;DHT22;8462;53.156;8.220;2023-05-07T05:12:11;11.90;99.90
7658;DHT22;8462;53.156;8.220;2023-05-07T05:14:38;11.90;99.90
7658;DHT22;8462;53.156;8.220;2023-05-07T05:17:06;11.90;99.90
7658;DHT22;8462;53.156;8.220;2023-05-07T05:19:35;11.90;99.90
7658;DHT22;8462;53.156;8.220;2023-05-07T05:22:02;11.90;99.90
7658;DHT22;8462;53.156;8.220;2023-05-07T05:24:31;11.80;99.90
7658;DHT22;8462;53.156;8.220;2023-05-07T05:26:58;11.80;99.90
7658;DHT22;8462;53.156;8.220;2023-05-07T05:29:31;11.80;99.90
7658;DHT22;8462;53.156;8.220;2023-05-07T05:31:58;11.80;99.90
7658;DHT22;8462;53.156;8.220;2023-05-07T05:34:26;11.80;99.90
7658;DHT22;8462;53.156;8.220;2023-05-07T05:36:53;11.80;99.90
7658;DHT22;8462;53.156;8.220;2023-05-07T05:39:20;11.80;99.90
7658;DHT22;8462;53.156;8.220;2023-05-07T05:41:50;11.80;99.90
7658;DHT22;8462;53.156;8.220;2023-05-07T05:44:17;11.70;99.90
7658;DHT22;8462;53.156;8.220;2023-05-07T05:46:44;11.70;99.90
7658;DHT22;8462;53.156;8.220;2023-05-07T05:49:11;11.70;99.90
7658;DHT22;8462;53.156;8.220;2023-05-07T05:51:39;11.80;99.90
7658;DHT22;8462;53.156;8.220;2023-05-07T05:54:06;11.80;99.90
7658;DHT22;8462;53.156;8.220;2023-05-07T05:56:33;11.80;99.90
7658;DHT22;8462;53.156;8.220;2023-05-07T05:59:01;11.80;99.90
7658;DHT22;8462;53.156;8.220;2023-05-07T06:01:28;11.80;99.90
7658;DHT22;8462;53.156;8.220;2023-05-07T06:03:58;11.80;99.90
7658;DHT22;8462;53.156;8.220;2023-05-07T06:06:25;11.80;99.90
7658;DHT22;8462;53.156;8.220;2023-05-07T06:08:55;11.90;99.90
7658;DHT22;8462;53.156;8.220;2023-05-07T06:11:28;11.90;99.90
7658;DHT22;8462;53.156;8.220;2023-05-07T06:13:55;11.90;99.90
7658;DHT22;8462;53.156;8.220;2023-05-07T06:16:24;11.80;99.90
7658;DHT22;8462;53.156;8.220;2023-05-07T06:18:52;11.80;99.90
7658;DHT22;8462;53.156;8.220;2023-05-07T06:21:19;11.80;99.90
7658;DHT22;8462;53.156;8.220;2023-05-07T06:23:47;11.80;99.90
7658;DHT22;8462;53.156;8.220;2023-05-07T06:26:13;11.90;99.90
7658;DHT22;8462;53.156;8.220;2023-05-07T06:28:45;11.80;99.90
7658;DHT22;8462;53.156;8.220;2023-05-07T06:31:14;11.70;99.90
7658;DHT22;8462;53.156;8.220;2023-05-07T06:33:45;11.70;99.90
7658;DHT22;8462;53.156;8.220;2023-05-07T06:36:14;11.60;99.90
7658;DHT22;8462;53.156;8.220;2023-05-07T06:38:41;11.60;99.90
7658;DHT22;8462;53.156;8.220;2023-05-07T06:41:08;11.60;99.90
7658;DHT22;8462;53.156;8.220;2023-05-07T06:43:39;11.60;99.90
7658;DHT22;8462;53.156;8.220;2023-05-07T06:46:25;11.70;99.90
7658;DHT22;8462;53.156;8.220;2023-05-07T06:48:53;11.70;99.90
7658;DHT22;8462;53.156;8.220;2023-05-07T06:51:20;11.70;99.90
7658;DHT22;8462;53.156;8.220;2023-05-07T06:53:47;11.70;99.90
7658;DHT22;8462;53.156;8.220;2023-05-07T06:56:14;11.80;99.90
7658;DHT22;8462;53.156;8.220;2023-05-07T06:58:41;11.90;99.90
7658;DHT22;8462;53.156;8.220;2023-05-07T07:01:09;11.90;99.90
7658;DHT22;8462;53.156;8.220;2023-05-07T07:03:37;11.90;99.90
7658;DHT22;8462;53.156;8.220;2023-05-07T07:06:05;12.00;99.90
7658;DHT22;8462;53.156;8.220;2023-05-07T07:08:33;12.10;99.90
7658;DHT22;8462;53.156;8.220;2023-05-07T07:11:00;12.20;99.90
7658;DHT22;8462;53.156;8.220;2023-05-07T07:13:29;12.20;99.90
7658;DHT22;8462;53.156;8.220;2023-05-07T07:15:55;12.30;99.90
7658;DHT22;8462;53.156;8.220;2023-05-07T07:18:23;12.40;99.90
7658;DHT22;8462;53.156;8.220;2023-05-07T07:20:52;12.50;99.90
7658;DHT22;8462;53.156;8.220;2023-05-07T07:23:20;12.70;99.80
7658;DHT22;8462;53.156;8.220;2023-05-07T07:25:48;12.70;98.70
7658;DHT22;8462;53.156;8.220;2023-05-07T07:28:14;12.70;98.80
7658;DHT22;8462;53.156;8.220;2023-05-07T07:30:42;12.80;98.30
7658;DHT22;8462;53.156;8.220;2023-05-07T07:33:10;12.80;98.00
7658;DHT22;8462;53.156;8.220;2023-05-07T07:35:38;12.70;98.00
7658;DHT22;8462;53.156;8.220;2023-05-07T07:38:05;12.80;98.30
7658;DHT22;8462;53.156;8.220;2023-05-07T07:40:35;12.80;98.00
7658;DHT22;8462;53.156;8.220;2023-05-07T07:43:03;12.90;97.00
7658;DHT22;8462;53.156;8.220;2023-05-07T07:45:31;12.90;96.90
7658;DHT22;8462;53.156;8.220;2023-05-07T07:47:59;12.90;97.10
7658;DHT22;8462;53.156;8.220;2023-05-07T07:50:27;13.00;96.70
7658;DHT22;8462;53.156;8.220;2023-05-07T07:52:54;13.00;97.00
7658;DHT22;8462;53.156;8.220;2023-05-07T07:55:22;13.10;96.60
7658;DHT22;8462;53.156;8.220;2023-05-07T07:57:53;13.10;96.60
7658;DHT22;8462;53.156;8.220;2023-05-07T08:00:21;13.10;96.60
7658;DHT22;8462;53.156;8.220;2023-05-07T08:02:52;13.20;96.20
7658;DHT22;8462;53.156;8.220;2023-05-07T08:05:24;13.30;95.80
7658;DHT22;8462;53.156;8.220;2023-05-07T08:07:52;13.30;95.90
7658;DHT22;8462;53.156;8.220;2023-05-07T08:10:23;13.40;95.70
7658;DHT22;8462;53.156;8.220;2023-05-07T08:12:58;13.40;95.70
7658;DHT22;8462;53.156;8.220;2023-05-07T08:15:25;13.30;95.90
7658;DHT22;8462;53.156;8.220;2023-05-07T08:17:52;13.40;96.00
7658;DHT22;8462;53.156;8.220;2023-05-07T08:20:19;13.30;96.40
7658;DHT22;8462;53.156;8.220;2023-05-07T08:22:46;13.20;96.00
7658;DHT22;8462;53.156;8.220;2023-05-07T08:25:13;13.10;96.20
7658;DHT22;8462;53.156;8.220;2023-05-07T08:27:40;13.20;96.60
7658;DHT22;8462;53.156;8.220;2023-05-07T08:30:10;13.20;95.90
7658;DHT22;8462;53.156;8.220;2023-05-07T08:32:37;13.30;95.70
7658;DHT22;8462;53.156;8.220;2023-05-07T08:35:04;13.40;95.50
7658;DHT22;8462;53.156;8.220;2023-05-07T08:37:31;13.40;96.00
7658;DHT22;8462;53.156;8.220;2023-05-07T08:39:59;13.50;96.00
7658;DHT22;8462;53.156;8.220;2023-05-07T08:42:31;13.50;95.80
7658;DHT22;8462;53.156;8.220;2023-05-07T08:45:02;13.60;95.30
7658;DHT22;8462;53.156;8.220;2023-05-07T08:47:42;13.70;95.00
7658;DHT22;8462;53.156;8.220;2023-05-07T08:50:11;13.80;94.60
7658;DHT22;8462;53.156;8.220;2023-05-07T08:52:39;13.80;94.30
7658;DHT22;8462;53.156;8.220;2023-05-07T08:55:08;13.80;94.50
7658;DHT22;8462;53.156;8.220;2023-05-07T08:57:35;13.90;94.70
7658;DHT22;8462;53.156;8.220;2023-05-07T09:00:05;13.90;93.90
7658;DHT22;8462;53.156;8.220;2023-05-07T09:02:36;14.00;94.10
7658;DHT22;8462;53.156;8.220;2023-05-07T09:05:05;14.00;94.00
7658;DHT22;8462;53.156;8.220;2023-05-07T09:07:33;14.10;93.80
7658;DHT22;8462;53.156;8.220;2023-05-07T09:10:02;14.20;93.50
7658;DHT22;8462;53.156;8.220;2023-05-07T09:12:30;14.40;92.80
7658;DHT22;8462;53.156;8.220;2023-05-07T09:14:58;14.50;92.90
7658;DHT22;8462;53.156;8.220;2023-05-07T09:17:27;14.70;92.10
7658;DHT22;8462;53.156;8.220;2023-05-07T09:19:55;14.70;91.70
7658;DHT22;8462;53.156;8.220;2023-05-07T09:22:22;14.80;92.20
7658;DHT22;8462;53.156;8.220;2023-05-07T09:24:58;15.00;91.20
7658;DHT22;8462;53.156;8.220;2023-05-07T09:27:27;15.20;91.10
7658;DHT22;8462;53.156;8.220;2023-05-07T09:29:55;15.40;91.10
7658;DHT22;8462;53.156;8.220;2023-05-07T09:32:22;15.60;90.30
7658;DHT22;8462;53.156;8.220;2023-05-07T09:34:49;15.80;89.50
7658;DHT22;8462;53.156;8.220;2023-05-07T09:37:20;15.80;90.00
7658;DHT22;8462;53.156;8.220;2023-05-07T09:39:49;15.80;88.60
7658;DHT22;8462;53.156;8.220;2023-05-07T09:42:23;16.00;88.60
7658;DHT22;8462;53.156;8.220;2023-05-07T09:44:52;16.20;87.00
7658;DHT22;8462;53.156;8.220;2023-05-07T09:47:24;16.20;86.60
7658;DHT22;8462;53.156;8.220;2023-05-07T09:49:56;16.20;87.20
7658;DHT22;8462;53.156;8.220;2023-05-07T09:52:26;16.30;86.30
7658;DHT22;8462;53.156;8.220;2023-05-07T09:55:00;16.20;86.50
7658;DHT22;8462;53.156;8.220;2023-05-07T09:57:31;16.30;86.30
7658;DHT22;8462;53.156;8.220;2023-05-07T10:00:04;16.30;85.70
7658;DHT22;8462;53.156;8.220;2023-05-07T10:02:47;16.40;86.30
7658;DHT22;8462;53.156;8.220;2023-05-07T10:05:18;16.50;85.80
7658;DHT22;8462;53.156;8.220;2023-05-07T10:07:48;16.50;85.80
7658;DHT22;8462;53.156;8.220;2023-05-07T10:10:16;16.70;85.20
7658;DHT22;8462;53.156;8.220;2023-05-07T10:12:45;16.80;84.80
7658;DHT22;8462;53.156;8.220;2023-05-07T10:15:23;16.90;83.90
7658;DHT22;8462;53.156;8.220;2023-05-07T10:17:54;16.90;84.20
7658;DHT22;8462;53.156;8.220;2023-05-07T10:20:23;16.90;85.30
7658;DHT22;8462;53.156;8.220;2023-05-07T10:22:54;16.90;83.40
7658;DHT22;8462;53.156;8.220;2023-05-07T10:25:30;17.00;84.00
7658;DHT22;8462;53.156;8.220;2023-05-07T10:28:04;17.10;83.50
7658;DHT22;8462;53.156;8.220;2023-05-07T10:30:40;17.10;83.20
7658;DHT22;8462;53.156;8.220;2023-05-07T10:33:16;17.10;84.10
7658;DHT22;8462;53.156;8.220;2023-05-07T10:35:46;17.20;84.50
7658;DHT22;8462;53.156;8.220;2023-05-07T10:38:16;17.40;82.80
7658;DHT22;8462;53.156;8.220;2023-05-07T10:40:46;17.50;82.90
7658;DHT22;8462;53.156;8.220;2023-05-07T10:43:13;17.50;82.50
7658;DHT22;8462;53.156;8.220;2023-05-07T10:46:10;17.40;82.10
7658;DHT22;8462;53.156;8.220;2023-05-07T10:49:07;17.30;82.80
7658;DHT22;8462;53.156;8.220;2023-05-07T10:51:41;17.30;83.30
7658;DHT22;8462;53.156;8.220;2023-05-07T10:54:23;17.40;83.50
7658;DHT22;8462;53.156;8.220;2023-05-07T10:57:34;17.50;83.30
7658;DHT22;8462;53.156;8.220;2023-05-07T11:00:41;17.50;82.30
7658;DHT22;8462;53.156;8.220;2023-05-07T11:03:12;17.50;82.30
7658;DHT22;8462;53.156;8.220;2023-05-07T11:06:11;17.60;82.50
7658;DHT22;8462;53.156;8.220;2023-05-07T11:08:53;17.70;82.30
7658;DHT22;8462;53.156;8.220;2023-05-07T11:11:45;17.80;80.90
7658;DHT22;8462;53.156;8.220;2023-05-07T11:14:43;17.80;81.40
7658;DHT22;8462;53.156;8.220;2023-05-07T11:17:18;18.00;81.20
7658;DHT22;8462;53.156;8.220;2023-05-07T11:19:52;18.10;80.50
7658;DHT22;8462;53.156;8.220;2023-05-07T11:22:38;18.40;81.40
7658;DHT22;8462;53.156;8.220;2023-05-07T11:25:18;18.80;78.80
7658;DHT22;8462;53.156;8.220;2023-05-07T11:27:49;19.00;79.90
7658;DHT22;8462;53.156;8.220;2023-05-07T11:30:17;19.20;78.10
7658;DHT22;8462;53.156;8.220;2023-05-07T11:32:47;19.00;77.60
7658;DHT22;8462;53.156;8.220;2023-05-07T11:35:16;18.80;77.70
7658;DHT22;8462;53.156;8.220;2023-05-07T11:37:46;18.50;79.00
7658;DHT22;8462;53.156;8.220;2023-05-07T11:40:14;18.30;79.70
7658;DHT22;8462;53.156;8.220;2023-05-07T11:42:41;18.10;80.10
7658;DHT22;8462;53.156;8.220;2023-05-07T11:45:10;18.10;80.90
7658;DHT22;8462;53.156;8.220;2023-05-07T11:47:37;18.20;81.30
7658;DHT22;8462;53.156;8.220;2023-05-07T11:50:08;18.10;80.50
7658;DHT22;8462;53.156;8.220;2023-05-07T11:52:36;18.00;80.90
7658;DHT22;8462;53.156;8.220;2023-05-07T11:55:05;17.80;81.00
7658;DHT22;8462;53.156;8.220;2023-05-07T11:57:33;17.80;82.60
7658;DHT22;8462;53.156;8.220;2023-05-07T12:00:00;17.90;81.80
7658;DHT22;8462;53.156;8.220;2023-05-07T12:02:39;18.10;80.70
7658;DHT22;8462;53.156;8.220;2023-05-07T12:05:08;18.00;81.00
7658;DHT22;8462;53.156;8.220;2023-05-07T12:07:35;18.10;81.60
7658;DHT22;8462;53.156;8.220;2023-05-07T12:10:04;18.30;80.50
7658;DHT22;8462;53.156;8.220;2023-05-07T12:12:38;18.40;79.50
7658;DHT22;8462;53.156;8.220;2023-05-07T12:15:05;18.50;79.20
7658;DHT22;8462;53.156;8.220;2023-05-07T12:17:32;18.60;79.50
7658;DHT22;8462;53.156;8.220;2023-05-07T12:20:01;18.70;78.50
7658;DHT22;8462;53.156;8.220;2023-05-07T12:22:28;18.80;78.30
7658;DHT22;8462;53.156;8.220;2023-05-07T12:24:57;18.70;78.60
7658;DHT22;8462;53.156;8.220;2023-05-07T12:27:25;18.60;78.50
7658;DHT22;8462;53.156;8.220;2023-05-07T12:29:52;18.70;79.20
7658;DHT22;8462;53.156;8.220;2023-05-07T12:32:20;18.70;77.50
7658;DHT22;8462;53.156;8.220;2023-05-07T12:34:49;18.70;77.40
7658;DHT22;8462;53.156;8.220;2023-05-07T12:37:24;18.60;77.90
7658;DHT22;8462;53.156;8.220;2023-05-07T12:40:04;18.50;78.50
7658;DHT22;8462;53.156;8.220;2023-05-07T12:42:33;18.50;78.40
7658;DHT22;8462;53.156;8.220;2023-05-07T12:45:08;18.50;78.00
7658;DHT22;8462;53.156;8.220;2023-05-07T12:47:35;18.50;78.70
7658;DHT22;8462;53.156;8.220;2023-05-07T12:50:05;18.40;78.60
7658;DHT22;8462;53.156;8.220;2023-05-07T12:52:34;18.20;80.00
7658;DHT22;8462;53.156;8.220;2023-05-07T12:55:05;18.20;79.70
7658;DHT22;8462;53.156;8.220;2023-05-07T12:57:37;18.20;79.60
7658;DHT22;8462;53.156;8.220;2023-05-07T13:00:06;18.20;80.80
7658;DHT22;8462;53.156;8.220;2023-05-07T13:02:33;18.40;79.90
7658;DHT22;8462;53.156;8.220;2023-05-07T13:05:01;18.60;79.40
7658;DHT22;8462;53.156;8.220;2023-05-07T13:07:28;18.80;79.10
7658;DHT22;8462;53.156;8.220;2023-05-07T13:09:56;19.00;78.50
7658;DHT22;8462;53.156;8.220;2023-05-07T13:12:23;19.20;78.00
7658;DHT22;8462;53.156;8.220;2023-05-07T13:14:50;19.40;76.40
7658;DHT22;8462;53.156;8.220;2023-05-07T13:17:17;19.50;76.20
7658;DHT22;8462;53.156;8.220;2023-05-07T13:19:44;19.70;76.20
7658;DHT22;8462;53.156;8.220;2023-05-07T13:22:11;19.80;75.80
7658;DHT22;8462;53.156;8.220;2023-05-07T13:24:38;19.90;74.00
7658;DHT22;8462;53.156;8.220;2023-05-07T13:27:08;19.80;75.20
7658;DHT22;8462;53.156;8.220;2023-05-07T13:29:35;19.70;75.30
7658;DHT22;8462;53.156;8.220;2023-05-07T13:32:02;19.60;75.80
7658;DHT22;8462;53.156;8.220;2023-05-07T13:34:29;19.50;75.80
7658;DHT22;8462;53.156;8.220;2023-05-07T13:36:56;19.60;77.00
7658;DHT22;8462;53.156;8.220;2023-05-07T13:39:23;19.70;76.20
7658;DHT22;8462;53.156;8.220;2023-05-07T13:41:50;19.70;76.10
7658;DHT22;8462;53.156;8.220;2023-05-07T13:44:18;19.70;76.80
7658;DHT22;8462;53.156;8.220;2023-05-07T13:46:45;19.60;76.20
7658;DHT22;8462;53.156;8.220;2023-05-07T13:49:12;19.60;76.50
7658;DHT22;8462;53.156;8.220;2023-05-07T13:51:38;19.40;76.80
7658;DHT22;8462;53.156;8.220;2023-05-07T13:54:05;19.40;77.30
7658;DHT22;8462;53.156;8.220;2023-05-07T13:56:32;19.50;77.10
7658;DHT22;8462;53.156;8.220;2023-05-07T13:58:59;19.40;76.30
7658;DHT22;8462;53.156;8.220;2023-05-07T14:01:28;19.10;77.30
7658;DHT22;8462;53.156;8.220;2023-05-07T14:03:55;18.90;77.60
7658;DHT22;8462;53.156;8.220;2023-05-07T14:06:23;18.80;79.10
7658;DHT22;8462;53.156;8.220;2023-05-07T14:08:50;18.70;78.90
7658;DHT22;8462;53.156;8.220;2023-05-07T14:11:17;18.80;78.90
7658;DHT22;8462;53.156;8.220;2023-05-07T14:13:44;18.80;78.60
7658;DHT22;8462;53.156;8.220;2023-05-07T14:16:11;18.90;78.90
7658;DHT22;8462;53.156;8.220;2023-05-07T14:18:39;18.80;78.90
7658;DHT22;8462;53.156;8.220;2023-05-07T14:21:06;18.70;79.40
7658;DHT22;8462;53.156;8.220;2023-05-07T14:23:35;18.70;79.50
7658;DHT22;8462;53.156;8.220;2023-05-07T14:26:02;18.90;79.20
7658;DHT22;8462;53.156;8.220;2023-05-07T14:28:28;18.90;78.80
7658;DHT22;8462;53.156;8.220;2023-05-07T14:30:55;18.90;79.60
7658;DHT22;8462;53.156;8.220;2023-05-07T14:33:22;18.90;79.20
7658;DHT22;8462;53.156;8.220;2023-05-07T14:35:50;18.80;78.50
7658;DHT22;8462;53.156;8.220;2023-05-07T14:38:17;18.70;78.90
7658;DHT22;8462;53.156;8.220;2023-05-07T14:40:45;18.60;79.70
7658;DHT22;8462;53.156;8.220;2023-05-07T14:43:12;18.60;79.70
7658;DHT22;8462;53.156;8.220;2023-05-07T14:45:39;18.60;79.80
7658;DHT22;8462;53.156;8.220;2023-05-07T14:48:06;18.70;80.00
7658;DHT22;8462;53.156;8.220;2023-05-07T14:50:34;18.80;79.90
7658;DHT22;8462;53.156;8.220;2023-05-07T14:53:02;18.80;79.70
7658;DHT22;8462;53.156;8.220;2023-05-07T14:55:29;18.80;79.30
7658;DHT22;8462;53.156;8.220;2023-05-07T14:57:56;18.80;79.90
7658;DHT22;8462;53.156;8.220;2023-05-07T15:00:24;18.80;79.80
7658;DHT22;8462;53.156;8.220;2023-05-07T15:02:51;18.90;80.10
7658;DHT22;8462;53.156;8.220;2023-05-07T15:05:18;18.90;78.70
7658;DHT22;8462;53.156;8.220;2023-05-07T15:07:45;19.00;78.70
7658;DHT22;8462;53.156;8.220;2023-05-07T15:10:13;19.10;78.10
7658;DHT22;8462;53.156;8.220;2023-05-07T15:12:40;19.20;79.30
7658;DHT22;8462;53.156;8.220;2023-05-07T15:15:08;19.30;78.10
7658;DHT22;8462;53.156;8.220;2023-05-07T15:17:35;19.30;78.10
7658;DHT22;8462;53.156;8.220;2023-05-07T15:20:02;19.40;77.60
7658;DHT22;8462;53.156;8.220;2023-05-07T15:22:30;19.50;77.50
7658;DHT22;8462;53.156;8.220;2023-05-07T15:24:57;19.50;77.70
7658;DHT22;8462;53.156;8.220;2023-05-07T15:27:25;19.60;77.40
7658;DHT22;8462;53.156;8.220;2023-05-07T15:29:52;19.70;76.30
7658;DHT22;8462;53.156;8.220;2023-05-07T15:32:19;19.50;77.00
7658;DHT22;8462;53.156;8.220;2023-05-07T15:34:46;19.50;77.40
7658;DHT22;8462;53.156;8.220;2023-05-07T15:37:13;19.40;77.70
7658;DHT22;8462;53.156;8.220;2023-05-07T15:39:40;19.50;77.70
7658;DHT22;8462;53.156;8.220;2023-05-07T15:42:06;19.50;77.60
7658;DHT22;8462;53.156;8.220;2023-05-07T15:44:35;19.40;77.30
7658;DHT22;8462;53.156;8.220;2023-05-07T15:47:02;19.40;77.10
7658;DHT22;8462;53.156;8.220;2023-05-07T15:49:29;19.30;77.60
7658;DHT22;8462;53.156;8.220;2023-05-07T15:51:56;19.30;77.40
7658;DHT22;8462;53.156;8.220;2023-05-07T15:54:23;19.30;77.30
7658;DHT22;8462;53.156;8.220;2023-05-07T15:56:50;19.20;77.80
7658;DHT22;8462;53.156;8.220;2023-05-07T15:59:17;19.30;76.70
7658;DHT22;8462;53.156;8.220;2023-05-07T16:01:45;19.30;77.80
7658;DHT22;8462;53.156;8.220;2023-05-07T16:04:12;19.30;78.00
7658;DHT22;8462;53.156;8.220;2023-05-07T16:06:38;19.20;77.50
7658;DHT22;8462;53.156;8.220;2023-05-07T16:09:05;19.00;77.80
7658;DHT22;8462;53.156;8.220;2023-05-07T16:11:33;18.80;79.10
7658;DHT22;8462;53.156;8.220;2023-05-07T16:14:00;18.70;79.20